sensor_id;sensor_type;location;lat;lon;timestamp;temperature;humidity
10249;DHT22;5169;50.560;9.714;2022-10-31T00:01:38;13.20;99.90
10249;DHT22;5169;50.560;9.714;2022-10-31T00:04:06;13.30;99.90
10249;DHT22;5169;50.560;9.714;2022-10-31T00:06:35;13.20;99.90
10249;DHT22;5169;50.560;9.714;2022-10-31T00:09:04;13.20;99.90
10249;DHT22;5169;50.560;9.714;2022-10-31T00:11:30;13.10;99.90
10249;DHT22;5169;50.560;9.714;2022-10-31T00:14:02;13.20;99.90
10249;DHT22;5169;50.560;9.714;2022-10-31T00:16:29;13.10;99.90
10249;DHT22;5169;50.560;9.714;2022-10-31T00:19:06;13.10;99.90
10249;DHT22;5169;50.560;9.714;2022-10-31T00:21:33;13.10;99.90
10249;DHT22;5169;50.560;9.714;2022-10-31T00:24:05;13.00;99.90
10249;DHT22;5169;50.560;9.714;2022-10-31T00:26:32;13.10;99.90
10249;DHT22;5169;50.560;9.714;2022-10-31T00:28:58;13.10;99.90
10249;DHT22;5169;50.560;9.714;2022-10-31T00:31:33;13.20;99.90
10249;DHT22;5169;50.560;9.714;2022-10-31T00:34:06;13.20;99.90
10249;DHT22;5169;50.560;9.714;2022-10-31T00:36:31;13.00;99.90
10249;DHT22;5169;50.560;9.714;2022-10-31T00:38:58;12.90;99.90
10249;DHT22;5169;50.560;9.714;2022-10-31T00:41:29;12.80;99.90
10249;DHT22;5169;50.560;9.714;2022-10-31T00:43:57;12.70;99.90
10249;DHT22;5169;50.560;9.714;2022-10-31T00:46:23;12.60;99.90
10249;DHT22;5169;50.560;9.714;2022-10-31T00:48:57;12.60;99.90
10249;DHT22;5169;50.560;9.714;2022-10-31T00:51:22;12.40;99.90
10249;DHT22;5169;50.560;9.714;2022-10-31T00:53:51;12.40;99.90
10249;DHT22;5169;50.560;9.714;2022-10-31T00:56:17;12.40;99.90
10249;DHT22;5169;50.560;9.714;2022-10-31T00:58:42;12.40;99.90
10249;DHT22;5169;50.560;9.714;2022-10-31T01:01:10;12.40;99.90
10249;DHT22;5169;50.560;9.714;2022-10-31T01:03:45;12.50;99.90
10249;DHT22;5169;50.560;9.714;2022-10-31T01:06:15;12.40;99.90
10249;DHT22;5169;50.560;9.714;2022-10-31T01:08:41;12.40;99.90
10249;DHT22;5169;50.560;9.714;2022-10-31T01:11:12;12.50;99.90
10249;DHT22;5169;50.560;9.714;2022-10-31T01:13:41;12.40;99.90
10249;DHT22;5169;50.560;9.714;2022-10-31T01:16:18;12.40;99.90
10249;DHT22;5169;50.560;9.714;2022-10-31T01:18:44;12.40;99.90
10249;DHT22;5169;50.560;9.714;2022-10-31T01:21:13;12.30;99.90
10249;DHT22;5169;50.560;9.714;2022-10-31T01:23:41;12.40;99.90
10249;DHT22;5169;50.560;9.714;2022-10-31T01:28:45;12.30;99.90
10249;DHT22;5169;50.560;9.714;2022-10-31T01:31:16;12.30;99.90
10249;DHT22;5169;50.560;9.714;2022-10-31T01:33:44;12.30;99.90
10249;DHT22;5169;50.560;9.714;2022-10-31T01:36:21;12.30;99.90
10249;DHT22;5169;50.560;9.714;2022-10-31T01:38:52;12.30;99.90
10249;DHT22;5169;50.560;9.714;2022-10-31T01:41:21;12.40;99.90
10249;DHT22;5169;50.560;9.714;2022-10-31T01:46:17;12.40;99.90
10249;DHT22;5169;50.560;9.714;2022-10-31T01:48:45;12.50;99.90
10249;DHT22;5169;50.560;9.714;2022-10-31T01:51:15;12.40;99.90
10249;DHT22;5169;50.560;9.714;2022-10-31T01:53:44;12.30;99.90
10249;DHT22;5169;50.560;9.714;2022-10-31T01:56:12;12.30;99.90
10249;DHT22;5169;50.560;9.714;2022-10-31T01:58:44;12.20;99.90
10249;DHT22;5169;50.560;9.714;2022-10-31T02:01:11;12.30;99.90
10249;DHT22;5169;50.560;9.714;2022-10-31T02:03:46;12.50;99.90
10249;DHT22;5169;50.560;9.714;2022-10-31T02:07:09;12.30;99.90
10249;DHT22;5169;50.560;9.714;2022-10-31T02:09:08;12.20;99.90
10249;DHT22;5169;50.560;9.714;2022-10-31T02:11:39;12.10;99.90
10249;DHT22;5169;50.560;9.714;2022-10-31T02:14:05;12.10;99.90
10249;DHT22;5169;50.560;9.714;2022-10-31T02:16:31;12.10;99.90
10249;DHT22;5169;50.560;9.714;2022-10-31T02:18:57;12.00;99.90
10249;DHT22;5169;50.560;9.714;2022-10-31T02:30:30;11.70;99.90
10249;DHT22;5169;50.560;9.714;2022-10-31T02:33:41;11.60;99.90
10249;DHT22;5169;50.560;9.714;2022-10-31T02:36:20;11.70;99.90
10249;DHT22;5169;50.560;9.714;2022-10-31T02:39:48;11.60;99.90
10249;DHT22;5169;50.560;9.714;2022-10-31T02:42:07;11.60;99.90
10249;DHT22;5169;50.560;9.714;2022-10-31T02:45:11;11.60;99.90
10249;DHT22;5169;50.560;9.714;2022-10-31T02:47:42;11.70;99.90
10249;DHT22;5169;50.560;9.714;2022-10-31T02:53:07;11.70;99.90
10249;DHT22;5169;50.560;9.714;2022-10-31T02:58:07;11.80;99.90
10249;DHT22;5169;50.560;9.714;2022-10-31T03:03:33;11.70;99.90
10249;DHT22;5169;50.560;9.714;2022-10-31T03:06:34;11.60;99.90
10249;DHT22;5169;50.560;9.714;2022-10-31T03:09:22;11.70;99.90
10249;DHT22;5169;50.560;9.714;2022-10-31T03:14:29;11.80;99.90
10249;DHT22;5169;50.560;9.714;2022-10-31T03:17:01;11.90;99.90
10249;DHT22;5169;50.560;9.714;2022-10-31T03:19:39;11.70;99.90
10249;DHT22;5169;50.560;9.714;2022-10-31T03:22:23;11.50;99.90
10249;DHT22;5169;50.560;9.714;2022-10-31T03:24:52;11.40;99.90
10249;DHT22;5169;50.560;9.714;2022-10-31T03:27:24;11.50;99.90
10249;DHT22;5169;50.560;9.714;2022-10-31T03:30:00;11.60;99.90
10249;DHT22;5169;50.560;9.714;2022-10-31T03:32:49;11.60;99.90
10249;DHT22;5169;50.560;9.714;2022-10-31T03:35:22;11.70;99.90
10249;DHT22;5169;50.560;9.714;2022-10-31T03:37:49;11.60;99.90
10249;DHT22;5169;50.560;9.714;2022-10-31T03:40:24;11.60;99.90
10249;DHT22;5169;50.560;9.714;2022-10-31T03:43:05;11.60;99.90
10249;DHT22;5169;50.560;9.714;2022-10-31T03:45:38;11.40;99.90
10249;DHT22;5169;50.560;9.714;2022-10-31T03:48:08;11.30;99.90
10249;DHT22;5169;50.560;9.714;2022-10-31T03:50:52;11.20;99.90
10249;DHT22;5169;50.560;9.714;2022-10-31T03:56:37;11.10;99.90
10249;DHT22;5169;50.560;9.714;2022-10-31T03:59:24;11.20;99.90
10249;DHT22;5169;50.560;9.714;2022-10-31T04:02:02;11.20;99.90
10249;DHT22;5169;50.560;9.714;2022-10-31T04:04:43;11.10;99.90
10249;DHT22;5169;50.560;9.714;2022-10-31T04:07:10;11.20;99.90
10249;DHT22;5169;50.560;9.714;2022-10-31T04:09:38;11.20;99.90
10249;DHT22;5169;50.560;9.714;2022-10-31T04:12:08;11.30;99.90
10249;DHT22;5169;50.560;9.714;2022-10-31T04:14:38;11.20;99.90
10249;DHT22;5169;50.560;9.714;2022-10-31T04:17:11;11.40;99.90
10249;DHT22;5169;50.560;9.714;2022-10-31T04:19:37;11.70;99.90
10249;DHT22;5169;50.560;9.714;2022-10-31T04:22:03;11.80;99.90
10249;DHT22;5169;50.560;9.714;2022-10-31T04:24:32;11.80;99.90
10249;DHT22;5169;50.560;9.714;2022-10-31T04:26:57;11.70;99.90
10249;DHT22;5169;50.560;9.714;2022-10-31T04:29:27;11.50;99.90
10249;DHT22;5169;50.560;9.714;2022-10-31T04:31:56;11.40;99.90
10249;DHT22;5169;50.560;9.714;2022-10-31T04:34:21;11.30;99.90
10249;DHT22;5169;50.560;9.714;2022-10-31T04:36:47;11.20;99.90
10249;DHT22;5169;50.560;9.714;2022-10-31T04:39:13;11.10;99.90
10249;DHT22;5169;50.560;9.714;2022-10-31T04:41:38;11.10;99.90
10249;DHT22;5169;50.560;9.714;2022-10-31T04:44:10;11.20;99.90
10249;DHT22;5169;50.560;9.714;2022-10-31T04:46:35;11.20;99.90
10249;DHT22;5169;50.560;9.714;2022-10-31T04:49:01;11.10;99.90
10249;DHT22;5169;50.560;9.714;2022-10-31T04:51:34;11.10;99.90
10249;DHT22;5169;50.560;9.714;2022-10-31T04:54:02;11.20;99.90
10249;DHT22;5169;50.560;9.714;2022-10-31T04:56:27;11.30;99.90
10249;DHT22;5169;50.560;9.714;2022-10-31T04:59:02;11.30;99.90
10249;DHT22;5169;50.560;9.714;2022-10-31T05:01:32;11.20;99.90
10249;DHT22;5169;50.560;9.714;2022-10-31T05:03:58;11.20;99.90
10249;DHT22;5169;50.560;9.714;2022-10-31T05:06:23;11.20;99.90
10249;DHT22;5169;50.560;9.714;2022-10-31T05:08:51;11.10;99.90
10249;DHT22;5169;50.560;9.714;2022-10-31T05:11:20;11.00;99.90
10249;DHT22;5169;50.560;9.714;2022-10-31T05:13:46;11.00;99.90
10249;DHT22;5169;50.560;9.714;2022-10-31T05:16:12;11.00;99.90
10249;DHT22;5169;50.560;9.714;2022-10-31T05:18:44;10.80;99.90
10249;DHT22;5169;50.560;9.714;2022-10-31T05:21:12;10.70;99.90
10249;DHT22;5169;50.560;9.714;2022-10-31T05:23:41;10.60;99.90
10249;DHT22;5169;50.560;9.714;2022-10-31T05:26:11;10.60;99.90
10249;DHT22;5169;50.560;9.714;2022-10-31T05:28:36;10.80;99.90
10249;DHT22;5169;50.560;9.714;2022-10-31T05:31:02;10.70;99.90
10249;DHT22;5169;50.560;9.714;2022-10-31T05:33:32;10.60;99.90
10249;DHT22;5169;50.560;9.714;2022-10-31T05:35:57;10.60;99.90
10249;DHT22;5169;50.560;9.714;2022-10-31T05:38:23;10.50;99.90
10249;DHT22;5169;50.560;9.714;2022-10-31T05:40:57;10.50;99.90
10249;DHT22;5169;50.560;9.714;2022-10-31T05:43:27;10.60;99.90
10249;DHT22;5169;50.560;9.714;2022-10-31T05:45:56;10.70;99.90
10249;DHT22;5169;50.560;9.714;2022-10-31T05:48:24;10.70;99.90
10249;DHT22;5169;50.560;9.714;2022-10-31T05:50:52;10.70;99.90
10249;DHT22;5169;50.560;9.714;2022-10-31T05:53:21;10.60;99.90
10249;DHT22;5169;50.560;9.714;2022-10-31T05:55:49;10.80;99.90
10249;DHT22;5169;50.560;9.714;2022-10-31T05:58:14;10.90;99.90
10249;DHT22;5169;50.560;9.714;2022-10-31T06:00:40;10.90;99.90
10249;DHT22;5169;50.560;9.714;2022-10-31T06:03:09;10.70;99.90
10249;DHT22;5169;50.560;9.714;2022-10-31T06:05:35;10.60;99.90
10249;DHT22;5169;50.560;9.714;2022-10-31T06:08:01;10.40;99.90
10249;DHT22;5169;50.560;9.714;2022-10-31T06:10:28;10.30;99.90
10249;DHT22;5169;50.560;9.714;2022-10-31T06:13:03;10.30;99.90
10249;DHT22;5169;50.560;9.714;2022-10-31T06:15:35;10.30;99.90
10249;DHT22;5169;50.560;9.714;2022-10-31T06:18:03;10.50;99.90
10249;DHT22;5169;50.560;9.714;2022-10-31T06:20:34;10.60;99.90
10249;DHT22;5169;50.560;9.714;2022-10-31T06:23:00;10.60;99.90
10249;DHT22;5169;50.560;9.714;2022-10-31T06:25:26;10.50;99.90
10249;DHT22;5169;50.560;9.714;2022-10-31T06:27:52;10.50;99.90
10249;DHT22;5169;50.560;9.714;2022-10-31T06:30:26;10.60;99.90
10249;DHT22;5169;50.560;9.714;2022-10-31T06:32:52;10.80;99.90
10249;DHT22;5169;50.560;9.714;2022-10-31T06:35:24;10.70;99.90
10249;DHT22;5169;50.560;9.714;2022-10-31T06:37:59;10.60;99.90
10249;DHT22;5169;50.560;9.714;2022-10-31T06:40:27;10.80;99.90
10249;DHT22;5169;50.560;9.714;2022-10-31T06:43:03;10.80;99.90
10249;DHT22;5169;50.560;9.714;2022-10-31T06:45:48;10.90;99.90
10249;DHT22;5169;50.560;9.714;2022-10-31T06:48:13;10.90;99.90
10249;DHT22;5169;50.560;9.714;2022-10-31T06:50:39;10.90;99.90
10249;DHT22;5169;50.560;9.714;2022-10-31T06:53:05;11.00;99.90
10249;DHT22;5169;50.560;9.714;2022-10-31T06:55:36;11.20;99.90
10249;DHT22;5169;50.560;9.714;2022-10-31T06:58:04;11.40;99.90
10249;DHT22;5169;50.560;9.714;2022-10-31T07:00:37;11.50;99.90
10249;DHT22;5169;50.560;9.714;2022-10-31T07:03:12;11.60;99.90
10249;DHT22;5169;50.560;9.714;2022-10-31T07:05:39;11.80;99.90
10249;DHT22;5169;50.560;9.714;2022-10-31T07:08:13;11.90;99.90
10249;DHT22;5169;50.560;9.714;2022-10-31T07:10:42;11.80;99.90
10249;DHT22;5169;50.560;9.714;2022-10-31T07:13:13;11.90;99.90
10249;DHT22;5169;50.560;9.714;2022-10-31T07:15:40;11.80;99.90
10249;DHT22;5169;50.560;9.714;2022-10-31T07:18:14;11.90;99.90
10249;DHT22;5169;50.560;9.714;2022-10-31T07:20:51;11.90;99.90
10249;DHT22;5169;50.560;9.714;2022-10-31T07:23:17;11.90;99.90
10249;DHT22;5169;50.560;9.714;2022-10-31T07:25:55;11.90;99.90
10249;DHT22;5169;50.560;9.714;2022-10-31T07:28:24;12.00;99.90
10249;DHT22;5169;50.560;9.714;2022-10-31T07:30:51;12.00;99.90
10249;DHT22;5169;50.560;9.714;2022-10-31T07:33:17;12.20;99.90
10249;DHT22;5169;50.560;9.714;2022-10-31T07:35:47;12.30;99.90
10249;DHT22;5169;50.560;9.714;2022-10-31T07:38:14;12.30;99.90
10249;DHT22;5169;50.560;9.714;2022-10-31T07:40:41;12.50;99.90
10249;DHT22;5169;50.560;9.714;2022-10-31T07:43:13;12.40;99.90
10249;DHT22;5169;50.560;9.714;2022-10-31T07:45:38;12.30;99.90
10249;DHT22;5169;50.560;9.714;2022-10-31T07:48:04;12.30;99.90
10249;DHT22;5169;50.560;9.714;2022-10-31T07:50:40;12.90;99.90
10249;DHT22;5169;50.560;9.714;2022-10-31T07:53:12;13.20;99.90
10249;DHT22;5169;50.560;9.714;2022-10-31T07:55:38;13.50;99.90
10249;DHT22;5169;50.560;9.714;2022-10-31T07:58:12;13.50;99.90
10249;DHT22;5169;50.560;9.714;2022-10-31T08:00:41;13.60;99.90
10249;DHT22;5169;50.560;9.714;2022-10-31T08:03:16;13.90;99.90
10249;DHT22;5169;50.560;9.714;2022-10-31T08:05:42;14.20;99.90
10249;DHT22;5169;50.560;9.714;2022-10-31T08:08:13;14.20;99.90
10249;DHT22;5169;50.560;9.714;2022-10-31T08:10:39;14.40;99.90
10249;DHT22;5169;50.560;9.714;2022-10-31T08:13:12;14.50;99.90
10249;DHT22;5169;50.560;9.714;2022-10-31T08:15:39;14.60;99.90
10249;DHT22;5169;50.560;9.714;2022-10-31T08:18:13;14.70;99.90
10249;DHT22;5169;50.560;9.714;2022-10-31T08:20:40;14.80;99.90
10249;DHT22;5169;50.560;9.714;2022-10-31T08:23:06;15.20;99.90
10249;DHT22;5169;50.560;9.714;2022-10-31T08:25:36;15.40;99.90
10249;DHT22;5169;50.560;9.714;2022-10-31T08:28:02;15.90;99.90
10249;DHT22;5169;50.560;9.714;2022-10-31T08:30:30;16.60;99.90
10249;DHT22;5169;50.560;9.714;2022-10-31T08:35:49;18.50;99.90
10249;DHT22;5169;50.560;9.714;2022-10-31T08:38:15;18.80;99.90
10249;DHT22;5169;50.560;9.714;2022-10-31T08:40:43;18.30;99.90
10249;DHT22;5169;50.560;9.714;2022-10-31T08:43:14;18.30;99.90
10249;DHT22;5169;50.560;9.714;2022-10-31T08:45:40;18.20;99.90
10249;DHT22;5169;50.560;9.714;2022-10-31T08:48:12;18.60;99.90
10249;DHT22;5169;50.560;9.714;2022-10-31T08:50:39;18.70;99.90
10249;DHT22;5169;50.560;9.714;2022-10-31T08:53:16;18.90;99.90
10249;DHT22;5169;50.560;9.714;2022-10-31T08:55:43;18.80;99.90
10249;DHT22;5169;50.560;9.714;2022-10-31T08:58:14;18.90;99.90
10249;DHT22;5169;50.560;9.714;2022-10-31T09:00:41;19.50;99.90
10249;DHT22;5169;50.560;9.714;2022-10-31T09:03:12;20.10;99.90
10249;DHT22;5169;50.560;9.714;2022-10-31T09:05:38;20.40;99.90
10249;DHT22;5169;50.560;9.714;2022-10-31T09:08:05;20.80;99.90
10249;DHT22;5169;50.560;9.714;2022-10-31T09:10:39;20.70;99.90
10249;DHT22;5169;50.560;9.714;2022-10-31T09:13:16;20.90;99.90
10249;DHT22;5169;50.560;9.714;2022-10-31T09:15:43;21.00;99.90
10249;DHT22;5169;50.560;9.714;2022-10-31T09:18:15;20.00;99.90
10249;DHT22;5169;50.560;9.714;2022-10-31T09:20:48;20.10;99.90
10249;DHT22;5169;50.560;9.714;2022-10-31T09:25:42;19.70;99.90
10249;DHT22;5169;50.560;9.714;2022-10-31T09:28:12;19.30;99.90
10249;DHT22;5169;50.560;9.714;2022-10-31T09:30:41;19.00;99.90
10249;DHT22;5169;50.560;9.714;2022-10-31T09:33:13;18.70;99.90
10249;DHT22;5169;50.560;9.714;2022-10-31T09:35:40;18.20;99.90
10249;DHT22;5169;50.560;9.714;2022-10-31T09:38:19;17.80;99.90
10249;DHT22;5169;50.560;9.714;2022-10-31T09:46:30;17.40;99.90
10249;DHT22;5169;50.560;9.714;2022-10-31T09:52:32;17.50;99.90
10249;DHT22;5169;50.560;9.714;2022-10-31T09:55:13;17.60;99.90
10249;DHT22;5169;50.560;9.714;2022-10-31T09:57:43;17.50;99.90
10249;DHT22;5169;50.560;9.714;2022-10-31T10:00:18;17.60;99.90
10249;DHT22;5169;50.560;9.714;2022-10-31T10:03:11;17.40;99.90
10249;DHT22;5169;50.560;9.714;2022-10-31T10:08:32;17.60;99.90
10249;DHT22;5169;50.560;9.714;2022-10-31T10:22:05;17.20;99.90
10249;DHT22;5169;50.560;9.714;2022-10-31T10:29:51;18.40;99.90
10249;DHT22;5169;50.560;9.714;2022-10-31T10:32:29;19.30;99.90
10249;DHT22;5169;50.560;9.714;2022-10-31T10:35:08;20.60;99.90
10249;DHT22;5169;50.560;9.714;2022-10-31T10:37:44;21.00;99.90
10249;DHT22;5169;50.560;9.714;2022-10-31T10:40:23;21.80;99.90
10249;DHT22;5169;50.560;9.714;2022-10-31T10:43:29;22.20;99.80
10249;DHT22;5169;50.560;9.714;2022-10-31T10:52:29;27.80;92.60
10249;DHT22;5169;50.560;9.714;2022-10-31T10:58:09;29.30;84.10
10249;DHT22;5169;50.560;9.714;2022-10-31T11:00:44;29.50;79.60
10249;DHT22;5169;50.560;9.714;2022-10-31T11:03:18;28.10;83.10
10249;DHT22;5169;50.560;9.714;2022-10-31T11:05:55;28.10;82.80
10249;DHT22;5169;50.560;9.714;2022-10-31T11:08:42;26.90;85.10
10249;DHT22;5169;50.560;9.714;2022-10-31T11:11:23;27.30;86.00
10249;DHT22;5169;50.560;9.714;2022-10-31T11:14:15;27.70;84.30
10249;DHT22;5169;50.560;9.714;2022-10-31T11:16:47;28.50;80.80
10249;DHT22;5169;50.560;9.714;2022-10-31T11:21:44;28.00;82.40
10249;DHT22;5169;50.560;9.714;2022-10-31T11:26:49;26.40;88.00
10249;DHT22;5169;50.560;9.714;2022-10-31T11:29:26;26.10;87.80
10249;DHT22;5169;50.560;9.714;2022-10-31T11:31:53;25.50;89.70
10249;DHT22;5169;50.560;9.714;2022-10-31T11:34:31;25.00;90.00
10249;DHT22;5169;50.560;9.714;2022-10-31T11:37:29;24.10;91.10
10249;DHT22;5169;50.560;9.714;2022-10-31T11:40:05;24.10;91.90
10249;DHT22;5169;50.560;9.714;2022-10-31T11:42:41;24.00;92.10
10249;DHT22;5169;50.560;9.714;2022-10-31T11:45:19;24.30;92.10
10249;DHT22;5169;50.560;9.714;2022-10-31T11:47:55;23.50;92.60
10249;DHT22;5169;50.560;9.714;2022-10-31T11:50:36;22.90;94.30
10249;DHT22;5169;50.560;9.714;2022-10-31T11:53:17;22.30;95.20
10249;DHT22;5169;50.560;9.714;2022-10-31T11:55:44;22.10;96.10
10249;DHT22;5169;50.560;9.714;2022-10-31T11:58:30;21.60;96.20
10249;DHT22;5169;50.560;9.714;2022-10-31T12:00:57;21.20;98.30
10249;DHT22;5169;50.560;9.714;2022-10-31T12:06:08;21.20;98.80
10249;DHT22;5169;50.560;9.714;2022-10-31T12:08:41;21.40;98.90
10249;DHT22;5169;50.560;9.714;2022-10-31T12:11:43;20.90;99.00
10249;DHT22;5169;50.560;9.714;2022-10-31T12:23:06;20.70;99.90
10249;DHT22;5169;50.560;9.714;2022-10-31T12:25:50;20.60;99.90
10249;DHT22;5169;50.560;9.714;2022-10-31T12:53:49;21.70;99.70
10249;DHT22;5169;50.560;9.714;2022-10-31T13:05:48;21.20;99.90
10249;DHT22;5169;50.560;9.714;2022-10-31T13:08:30;20.80;99.90
10249;DHT22;5169;50.560;9.714;2022-10-31T13:11:11;20.90;99.90
10249;DHT22;5169;50.560;9.714;2022-10-31T13:13:58;20.70;99.90
10249;DHT22;5169;50.560;9.714;2022-10-31T13:16:33;20.60;99.90
10249;DHT22;5169;50.560;9.714;2022-10-31T13:22:22;20.40;99.90
10249;DHT22;5169;50.560;9.714;2022-10-31T13:27:42;20.80;99.90
10249;DHT22;5169;50.560;9.714;2022-10-31T13:30:23;20.80;99.90
10249;DHT22;5169;50.560;9.714;2022-10-31T13:33:01;20.60;99.90
10249;DHT22;5169;50.560;9.714;2022-10-31T13:41:48;20.60;99.90
10249;DHT22;5169;50.560;9.714;2022-10-31T13:46:56;20.40;99.90
10249;DHT22;5169;50.560;9.714;2022-10-31T13:54:35;20.10;99.90
10249;DHT22;5169;50.560;9.714;2022-10-31T13:59:58;19.70;99.90
10249;DHT22;5169;50.560;9.714;2022-10-31T14:02:45;19.70;99.90
10249;DHT22;5169;50.560;9.714;2022-10-31T14:05:26;19.80;99.90
10249;DHT22;5169;50.560;9.714;2022-10-31T14:07:57;19.90;99.90
10249;DHT22;5169;50.560;9.714;2022-10-31T14:10:31;19.80;99.90
10249;DHT22;5169;50.560;9.714;2022-10-31T14:16:16;19.90;99.90
10249;DHT22;5169;50.560;9.714;2022-10-31T14:18:56;19.80;99.90
10249;DHT22;5169;50.560;9.714;2022-10-31T14:23:52;19.60;99.90
10249;DHT22;5169;50.560;9.714;2022-10-31T14:29:43;19.20;99.90
10249;DHT22;5169;50.560;9.714;2022-10-31T14:31:44;19.10;99.90
10249;DHT22;5169;50.560;9.714;2022-10-31T14:51:44;18.20;99.90
10249;DHT22;5169;50.560;9.714;2022-10-31T14:54:19;18.10;99.90
10249;DHT22;5169;50.560;9.714;2022-10-31T14:56:59;18.00;99.90
10249;DHT22;5169;50.560;9.714;2022-10-31T14:59:37;18.10;99.90
10249;DHT22;5169;50.560;9.714;2022-10-31T15:04:44;18.00;99.90
10249;DHT22;5169;50.560;9.714;2022-10-31T15:07:18;17.90;99.90
10249;DHT22;5169;50.560;9.714;2022-10-31T15:09:55;17.80;99.90
10249;DHT22;5169;50.560;9.714;2022-10-31T15:12:27;17.70;99.90
10249;DHT22;5169;50.560;9.714;2022-10-31T15:14:55;17.50;99.90
10249;DHT22;5169;50.560;9.714;2022-10-31T15:17:24;17.50;99.90
10249;DHT22;5169;50.560;9.714;2022-10-31T15:19:54;17.50;99.90
10249;DHT22;5169;50.560;9.714;2022-10-31T15:22:23;17.70;99.90
10249;DHT22;5169;50.560;9.714;2022-10-31T15:28:21;17.80;99.90
10249;DHT22;5169;50.560;9.714;2022-10-31T15:30:56;17.80;99.90
10249;DHT22;5169;50.560;9.714;2022-10-31T15:33:39;17.80;99.90
10249;DHT22;5169;50.560;9.714;2022-10-31T15:39:46;17.50;99.90
10249;DHT22;5169;50.560;9.714;2022-10-31T15:42:26;17.30;99.90
10249;DHT22;5169;50.560;9.714;2022-10-31T15:47:36;17.20;99.90
10249;DHT22;5169;50.560;9.714;2022-10-31T15:50:18;17.00;99.90
10249;DHT22;5169;50.560;9.714;2022-10-31T15:52:46;16.80;99.90
10249;DHT22;5169;50.560;9.714;2022-10-31T15:55:24;16.70;99.90
10249;DHT22;5169;50.560;9.714;2022-10-31T15:58:01;16.60;99.90
10249;DHT22;5169;50.560;9.714;2022-10-31T16:00:34;16.50;99.90
10249;DHT22;5169;50.560;9.714;2022-10-31T16:05:51;16.30;99.90
10249;DHT22;5169;50.560;9.714;2022-10-31T16:10:49;16.30;99.90
10249;DHT22;5169;50.560;9.714;2022-10-31T16:20:27;16.10;99.90
10249;DHT22;5169;50.560;9.714;2022-10-31T16:23:00;16.20;99.90
10249;DHT22;5169;50.560;9.714;2022-10-31T16:25:35;16.10;99.90
10249;DHT22;5169;50.560;9.714;2022-10-31T16:28:13;15.90;99.90
10249;DHT22;5169;50.560;9.714;2022-10-31T16:30:46;15.70;99.90
10249;DHT22;5169;50.560;9.714;2022-10-31T16:33:34;15.60;99.90
10249;DHT22;5169;50.560;9.714;2022-10-31T16:36:32;15.40;99.90
10249;DHT22;5169;50.560;9.714;2022-10-31T16:39:09;15.40;99.90
10249;DHT22;5169;50.560;9.714;2022-10-31T16:41:38;15.50;99.90
10249;DHT22;5169;50.560;9.714;2022-10-31T16:44:25;15.60;99.90
10249;DHT22;5169;50.560;9.714;2022-10-31T16:47:12;15.70;99.90
10249;DHT22;5169;50.560;9.714;2022-10-31T16:49:38;15.60;99.90
10249;DHT22;5169;50.560;9.714;2022-10-31T16:52:07;15.50;99.90
10249;DHT22;5169;50.560;9.714;2022-10-31T16:54:33;15.40;99.90
10249;DHT22;5169;50.560;9.714;2022-10-31T16:56:59;15.40;99.90
10249;DHT22;5169;50.560;9.714;2022-10-31T16:59:26;15.30;99.90
10249;DHT22;5169;50.560;9.714;2022-10-31T17:01:55;15.20;99.90
10249;DHT22;5169;50.560;9.714;2022-10-31T17:04:21;15.10;99.90
10249;DHT22;5169;50.560;9.714;2022-10-31T17:06:49;15.10;99.90
10249;DHT22;5169;50.560;9.714;2022-10-31T17:09:15;15.40;99.90
10249;DHT22;5169;50.560;9.714;2022-10-31T17:11:48;15.60;99.90
10249;DHT22;5169;50.560;9.714;2022-10-31T17:14:15;15.40;99.90
10249;DHT22;5169;50.560;9.714;2022-10-31T17:16:44;15.40;99.90
10249;DHT22;5169;50.560;9.714;2022-10-31T17:19:11;15.30;99.90
10249;DHT22;5169;50.560;9.714;2022-10-31T17:21:37;15.10;99.90
10249;DHT22;5169;50.560;9.714;2022-10-31T17:24:03;14.90;99.90
10249;DHT22;5169;50.560;9.714;2022-10-31T17:26:34;14.70;99.90
10249;DHT22;5169;50.560;9.714;2022-10-31T17:29:00;14.70;99.90
10249;DHT22;5169;50.560;9.714;2022-10-31T17:31:33;14.70;99.90
10249;DHT22;5169;50.560;9.714;2022-10-31T17:34:01;14.70;99.90
10249;DHT22;5169;50.560;9.714;2022-10-31T17:36:35;14.60;99.90
10249;DHT22;5169;50.560;9.714;2022-10-31T17:39:01;14.70;99.90
10249;DHT22;5169;50.560;9.714;2022-10-31T17:41:34;14.70;99.90
10249;DHT22;5169;50.560;9.714;2022-10-31T17:44:00;14.90;99.90
10249;DHT22;5169;50.560;9.714;2022-10-31T17:46:28;15.00;99.90
10249;DHT22;5169;50.560;9.714;2022-10-31T17:49:02;15.10;99.90
10249;DHT22;5169;50.560;9.714;2022-10-31T17:51:33;15.20;99.90
10249;DHT22;5169;50.560;9.714;2022-10-31T17:54:03;15.30;99.90
10249;DHT22;5169;50.560;9.714;2022-10-31T17:56:35;15.20;99.90
10249;DHT22;5169;50.560;9.714;2022-10-31T17:59:01;15.00;99.90
10249;DHT22;5169;50.560;9.714;2022-10-31T18:01:29;15.10;99.90
10249;DHT22;5169;50.560;9.714;2022-10-31T18:03:57;15.20;99.90
10249;DHT22;5169;50.560;9.714;2022-10-31T18:06:23;15.10;99.90
10249;DHT22;5169;50.560;9.714;2022-10-31T18:08:51;15.10;99.90
10249;DHT22;5169;50.560;9.714;2022-10-31T18:11:21;15.10;99.90
10249;DHT22;5169;50.560;9.714;2022-10-31T18:13:52;15.10;99.90
10249;DHT22;5169;50.560;9.714;2022-10-31T18:16:24;14.90;99.90
10249;DHT22;5169;50.560;9.714;2022-10-31T18:18:54;14.70;99.90
10249;DHT22;5169;50.560;9.714;2022-10-31T18:21:27;14.60;99.90
10249;DHT22;5169;50.560;9.714;2022-10-31T18:23:59;14.60;99.90
10249;DHT22;5169;50.560;9.714;2022-10-31T18:26:27;14.50;99.90
10249;DHT22;5169;50.560;9.714;2022-10-31T18:28:53;14.50;99.90
10249;DHT22;5169;50.560;9.714;2022-10-31T18:31:22;14.50;99.90
10249;DHT22;5169;50.560;9.714;2022-10-31T18:33:50;14.40;99.90
10249;DHT22;5169;50.560;9.714;2022-10-31T18:36:16;14.30;99.90
10249;DHT22;5169;50.560;9.714;2022-10-31T18:38:49;14.20;99.90
10249;DHT22;5169;50.560;9.714;2022-10-31T18:41:15;14.20;99.90
10249;DHT22;5169;50.560;9.714;2022-10-31T18:43:49;14.20;99.90
10249;DHT22;5169;50.560;9.714;2022-10-31T18:46:22;14.10;99.90
10249;DHT22;5169;50.560;9.714;2022-10-31T18:48:50;14.10;99.90
10249;DHT22;5169;50.560;9.714;2022-10-31T18:51:16;14.00;99.90
10249;DHT22;5169;50.560;9.714;2022-10-31T18:54:00;14.00;99.90
10249;DHT22;5169;50.560;9.714;2022-10-31T18:56:28;13.90;99.90
10249;DHT22;5169;50.560;9.714;2022-10-31T18:58:59;13.80;99.90
10249;DHT22;5169;50.560;9.714;2022-10-31T19:01:29;13.70;99.90
10249;DHT22;5169;50.560;9.714;2022-10-31T19:04:02;13.80;99.90
10249;DHT22;5169;50.560;9.714;2022-10-31T19:06:35;13.70;99.90
10249;DHT22;5169;50.560;9.714;2022-10-31T19:09:04;13.60;99.90
10249;DHT22;5169;50.560;9.714;2022-10-31T19:11:38;13.60;99.90
10249;DHT22;5169;50.560;9.714;2022-10-31T19:14:05;13.50;99.90
10249;DHT22;5169;50.560;9.714;2022-10-31T19:16:38;13.70;99.90
10249;DHT22;5169;50.560;9.714;2022-10-31T19:19:03;13.90;99.90
10249;DHT22;5169;50.560;9.714;2022-10-31T19:21:29;14.00;99.90
10249;DHT22;5169;50.560;9.714;2022-10-31T19:23:59;13.90;99.90
10249;DHT22;5169;50.560;9.714;2022-10-31T19:26:26;13.80;99.90
10249;DHT22;5169;50.560;9.714;2022-10-31T19:28:53;13.80;99.90
10249;DHT22;5169;50.560;9.714;2022-10-31T19:31:25;13.80;99.90